sensor_id;sensor_type;location;lat;lon;timestamp;P1;durP1;ratioP1;P2;durP2;ratioP2
16660;SDS011;8444;52.012;5.048;2023-05-20T00:01:07;11.33;;;4.00;;
16660;SDS011;8444;52.012;5.048;2023-05-20T00:03:32;5.83;;;3.17;;
16660;SDS011;8444;52.012;5.048;2023-05-20T00:05:57;6.93;;;2.90;;
16660;SDS011;8444;52.012;5.048;2023-05-20T00:08:23;6.47;;;3.83;;
16660;SDS011;8444;52.012;5.048;2023-05-20T00:10:48;7.17;;;3.30;;
16660;SDS011;8444;52.012;5.048;2023-05-20T00:13:13;6.63;;;2.97;;
16660;SDS011;8444;52.012;5.048;2023-05-20T00:15:38;8.50;;;3.33;;
16660;SDS011;8444;52.012;5.048;2023-05-20T00:18:03;5.60;;;3.07;;
16660;SDS011;8444;52.012;5.048;2023-05-20T00:20:29;9.03;;;3.50;;
16660;SDS011;8444;52.012;5.048;2023-05-20T00:22:54;7.80;;;3.83;;
16660;SDS011;8444;52.012;5.048;2023-05-20T00:25:19;8.47;;;3.00;;
16660;SDS011;8444;52.012;5.048;2023-05-20T00:27:44;5.90;;;3.60;;
16660;SDS011;8444;52.012;5.048;2023-05-20T00:30:11;7.47;;;4.07;;
16660;SDS011;8444;52.012;5.048;2023-05-20T00:32:36;7.73;;;3.70;;
16660;SDS011;8444;52.012;5.048;2023-05-20T00:35:02;6.50;;;3.53;;
16660;SDS011;8444;52.012;5.048;2023-05-20T00:37:27;10.23;;;3.37;;
16660;SDS011;8444;52.012;5.048;2023-05-20T00:39:53;8.70;;;3.97;;
16660;SDS011;8444;52.012;5.048;2023-05-20T00:42:19;5.23;;;3.03;;
16660;SDS011;8444;52.012;5.048;2023-05-20T00:44:44;5.07;;;2.93;;
16660;SDS011;8444;52.012;5.048;2023-05-20T00:47:09;5.17;;;3.27;;
16660;SDS011;8444;52.012;5.048;2023-05-20T00:49:34;6.33;;;3.20;;
16660;SDS011;8444;52.012;5.048;2023-05-20T00:52:00;8.40;;;3.87;;
16660;SDS011;8444;52.012;5.048;2023-05-20T00:54:25;8.03;;;3.60;;
16660;SDS011;8444;52.012;5.048;2023-05-20T00:56:50;8.87;;;3.87;;
16660;SDS011;8444;52.012;5.048;2023-05-20T00:59:15;9.03;;;4.10;;
16660;SDS011;8444;52.012;5.048;2023-05-20T01:01:41;4.83;;;3.20;;
16660;SDS011;8444;52.012;5.048;2023-05-20T01:04:06;6.70;;;3.20;;
16660;SDS011;8444;52.012;5.048;2023-05-20T01:06:31;5.57;;;3.20;;
16660;SDS011;8444;52.012;5.048;2023-05-20T01:08:57;4.93;;;3.57;;
16660;SDS011;8444;52.012;5.048;2023-05-20T01:11:27;7.73;;;4.27;;
16660;SDS011;8444;52.012;5.048;2023-05-20T01:13:55;5.27;;;3.63;;
16660;SDS011;8444;52.012;5.048;2023-05-20T01:16:22;4.63;;;2.90;;
16660;SDS011;8444;52.012;5.048;2023-05-20T01:18:48;6.70;;;4.20;;
16660;SDS011;8444;52.012;5.048;2023-05-20T01:21:14;8.23;;;3.37;;
16660;SDS011;8444;52.012;5.048;2023-05-20T01:23:41;6.73;;;3.87;;
16660;SDS011;8444;52.012;5.048;2023-05-20T01:26:06;6.40;;;3.27;;
16660;SDS011;8444;52.012;5.048;2023-05-20T01:28:32;8.60;;;3.57;;
16660;SDS011;8444;52.012;5.048;2023-05-20T01:30:58;6.37;;;3.47;;
16660;SDS011;8444;52.012;5.048;2023-05-20T01:33:25;7.37;;;3.10;;
16660;SDS011;8444;52.012;5.048;2023-05-20T01:35:52;11.67;;;3.50;;
16660;SDS011;8444;52.012;5.048;2023-05-20T01:38:17;6.67;;;3.50;;
16660;SDS011;8444;52.012;5.048;2023-05-20T01:40:43;6.07;;;2.97;;
16660;SDS011;8444;52.012;5.048;2023-05-20T01:43:08;7.80;;;3.10;;
16660;SDS011;8444;52.012;5.048;2023-05-20T01:45:34;8.67;;;3.77;;
16660;SDS011;8444;52.012;5.048;2023-05-20T01:47:59;7.23;;;3.40;;
16660;SDS011;8444;52.012;5.048;2023-05-20T01:50:25;8.00;;;3.20;;
16660;SDS011;8444;52.012;5.048;2023-05-20T01:52:50;7.10;;;3.47;;
16660;SDS011;8444;52.012;5.048;2023-05-20T01:55:16;8.03;;;3.80;;
16660;SDS011;8444;52.012;5.048;2023-05-20T01:57:41;5.80;;;3.33;;
16660;SDS011;8444;52.012;5.048;2023-05-20T02:00:06;7.97;;;3.60;;
16660;SDS011;8444;52.012;5.048;2023-05-20T02:02:32;5.97;;;3.83;;
16660;SDS011;8444;52.012;5.048;2023-05-20T02:04:57;5.10;;;3.53;;
16660;SDS011;8444;52.012;5.048;2023-05-20T02:07:22;7.47;;;3.67;;
16660;SDS011;8444;52.012;5.048;2023-05-20T02:09:47;8.03;;;3.77;;
16660;SDS011;8444;52.012;5.048;2023-05-20T02:12:13;7.63;;;3.77;;
16660;SDS011;8444;52.012;5.048;2023-05-20T02:14:47;8.33;;;4.50;;
16660;SDS011;8444;52.012;5.048;2023-05-20T02:17:13;7.70;;;3.57;;
16660;SDS011;8444;52.012;5.048;2023-05-20T02:19:40;7.87;;;3.77;;
16660;SDS011;8444;52.012;5.048;2023-05-20T02:22:05;5.73;;;3.53;;
16660;SDS011;8444;52.012;5.048;2023-05-20T02:24:30;6.17;;;3.77;;
16660;SDS011;8444;52.012;5.048;2023-05-20T02:26:56;7.57;;;3.97;;
16660;SDS011;8444;52.012;5.048;2023-05-20T02:29:22;7.93;;;3.40;;
16660;SDS011;8444;52.012;5.048;2023-05-20T02:31:48;4.90;;;3.23;;
16660;SDS011;8444;52.012;5.048;2023-05-20T02:34:14;5.00;;;3.70;;
16660;SDS011;8444;52.012;5.048;2023-05-20T02:36:39;8.10;;;4.13;;
16660;SDS011;8444;52.012;5.048;2023-05-20T02:39:04;9.83;;;3.40;;
16660;SDS011;8444;52.012;5.048;2023-05-20T02:41:29;7.97;;;4.10;;
16660;SDS011;8444;52.012;5.048;2023-05-20T02:43:55;5.43;;;3.33;;
16660;SDS011;8444;52.012;5.048;2023-05-20T02:46:20;8.30;;;3.87;;
16660;SDS011;8444;52.012;5.048;2023-05-20T02:48:45;10.70;;;4.10;;
16660;SDS011;8444;52.012;5.048;2023-05-20T02:51:10;7.03;;;3.50;;
16660;SDS011;8444;52.012;5.048;2023-05-20T02:53:35;6.23;;;4.20;;
16660;SDS011;8444;52.012;5.048;2023-05-20T02:56:02;6.00;;;3.23;;
16660;SDS011;8444;52.012;5.048;2023-05-20T02:58:27;8.63;;;3.90;;
16660;SDS011;8444;52.012;5.048;2023-05-20T03:00:53;5.07;;;3.43;;
16660;SDS011;8444;52.012;5.048;2023-05-20T03:03:18;7.17;;;4.13;;
16660;SDS011;8444;52.012;5.048;2023-05-20T03:05:43;7.53;;;3.70;;
16660;SDS011;8444;52.012;5.048;2023-05-20T03:08:10;9.20;;;3.80;;
16660;SDS011;8444;52.012;5.048;2023-05-20T03:10:36;10.33;;;3.97;;
16660;SDS011;8444;52.012;5.048;2023-05-20T03:13:03;4.87;;;3.63;;
16660;SDS011;8444;52.012;5.048;2023-05-20T03:15:28;8.03;;;3.67;;
16660;SDS011;8444;52.012;5.048;2023-05-20T03:17:54;9.77;;;3.97;;
16660;SDS011;8444;52.012;5.048;2023-05-20T03:20:19;6.83;;;3.50;;
16660;SDS011;8444;52.012;5.048;2023-05-20T03:22:44;8.53;;;3.53;;
16660;SDS011;8444;52.012;5.048;2023-05-20T03:25:10;10.93;;;4.80;;
16660;SDS011;8444;52.012;5.048;2023-05-20T03:27:35;10.67;;;4.07;;
16660;SDS011;8444;52.012;5.048;2023-05-20T03:30:02;5.00;;;3.13;;
16660;SDS011;8444;52.012;5.048;2023-05-20T03:32:27;7.63;;;4.37;;
16660;SDS011;8444;52.012;5.048;2023-05-20T03:34:52;8.20;;;4.57;;
16660;SDS011;8444;52.012;5.048;2023-05-20T03:37:18;9.13;;;4.27;;
16660;SDS011;8444;52.012;5.048;2023-05-20T03:39:43;5.53;;;3.57;;
16660;SDS011;8444;52.012;5.048;2023-05-20T03:42:08;6.77;;;4.50;;
16660;SDS011;8444;52.012;5.048;2023-05-20T03:44:34;9.40;;;3.67;;
16660;SDS011;8444;52.012;5.048;2023-05-20T03:46:59;6.10;;;3.70;;
16660;SDS011;8444;52.012;5.048;2023-05-20T03:49:24;6.20;;;4.00;;
16660;SDS011;8444;52.012;5.048;2023-05-20T03:51:49;5.80;;;3.60;;
16660;SDS011;8444;52.012;5.048;2023-05-20T03:54:15;7.53;;;4.37;;
16660;SDS011;8444;52.012;5.048;2023-05-20T03:56:41;5.63;;;3.93;;
16660;SDS011;8444;52.012;5.048;2023-05-20T03:59:06;7.13;;;4.23;;
16660;SDS011;8444;52.012;5.048;2023-05-20T04:01:31;9.87;;;4.20;;
16660;SDS011;8444;52.012;5.048;2023-05-20T04:03:57;7.57;;;4.23;;
16660;SDS011;8444;52.012;5.048;2023-05-20T04:06:22;8.03;;;3.77;;
16660;SDS011;8444;52.012;5.048;2023-05-20T04:08:48;7.57;;;3.77;;
16660;SDS011;8444;52.012;5.048;2023-05-20T04:11:14;5.10;;;3.50;;
16660;SDS011;8444;52.012;5.048;2023-05-20T04:13:39;12.27;;;4.73;;
16660;SDS011;8444;52.012;5.048;2023-05-20T04:16:04;7.27;;;3.93;;
16660;SDS011;8444;52.012;5.048;2023-05-20T04:18:29;6.37;;;3.83;;
16660;SDS011;8444;52.012;5.048;2023-05-20T04:20:55;10.00;;;3.80;;
16660;SDS011;8444;52.012;5.048;2023-05-20T04:23:21;6.13;;;3.53;;
16660;SDS011;8444;52.012;5.048;2023-05-20T04:25:46;5.40;;;4.00;;
16660;SDS011;8444;52.012;5.048;2023-05-20T04:28:12;6.53;;;3.47;;
16660;SDS011;8444;52.012;5.048;2023-05-20T04:30:40;6.83;;;3.73;;
16660;SDS011;8444;52.012;5.048;2023-05-20T04:33:06;5.13;;;3.60;;
16660;SDS011;8444;52.012;5.048;2023-05-20T04:35:31;5.57;;;3.40;;
16660;SDS011;8444;52.012;5.048;2023-05-20T04:37:58;6.53;;;4.27;;
16660;SDS011;8444;52.012;5.048;2023-05-20T04:40:25;7.10;;;3.67;;
16660;SDS011;8444;52.012;5.048;2023-05-20T04:42:51;8.37;;;4.80;;
16660;SDS011;8444;52.012;5.048;2023-05-20T04:45:16;7.80;;;4.10;;
16660;SDS011;8444;52.012;5.048;2023-05-20T04:47:42;6.40;;;3.70;;
16660;SDS011;8444;52.012;5.048;2023-05-20T04:50:08;6.53;;;3.93;;
16660;SDS011;8444;52.012;5.048;2023-05-20T04:52:37;4.78;;;3.20;;
16660;SDS011;8444;52.012;5.048;2023-05-20T04:55:07;6.40;;;3.63;;
16660;SDS011;8444;52.012;5.048;2023-05-20T04:57:34;5.38;;;3.72;;
16660;SDS011;8444;52.012;5.048;2023-05-20T05:00:00;6.63;;;3.25;;
16660;SDS011;8444;52.012;5.048;2023-05-20T05:02:26;7.47;;;3.63;;
16660;SDS011;8444;52.012;5.048;2023-05-20T05:04:51;7.13;;;3.22;;
16660;SDS011;8444;52.012;5.048;2023-05-20T05:07:16;6.80;;;3.28;;
16660;SDS011;8444;52.012;5.048;2023-05-20T05:09:41;5.75;;;3.33;;
16660;SDS011;8444;52.012;5.048;2023-05-20T05:12:06;8.07;;;3.42;;
16660;SDS011;8444;52.012;5.048;2023-05-20T05:14:31;6.25;;;3.40;;
16660;SDS011;8444;52.012;5.048;2023-05-20T05:16:57;5.80;;;3.75;;
16660;SDS011;8444;52.012;5.048;2023-05-20T05:19:22;7.60;;;2.80;;
16660;SDS011;8444;52.012;5.048;2023-05-20T05:21:47;6.30;;;3.78;;
16660;SDS011;8444;52.012;5.048;2023-05-20T05:24:12;6.63;;;3.47;;
16660;SDS011;8444;52.012;5.048;2023-05-20T05:26:37;5.80;;;3.45;;
16660;SDS011;8444;52.012;5.048;2023-05-20T05:29:03;10.77;;;3.30;;
16660;SDS011;8444;52.012;5.048;2023-05-20T05:31:28;5.50;;;3.53;;
16660;SDS011;8444;52.012;5.048;2023-05-20T05:33:53;4.50;;;3.80;;
16660;SDS011;8444;52.012;5.048;2023-05-20T05:36:18;4.88;;;3.40;;
16660;SDS011;8444;52.012;5.048;2023-05-20T05:38:43;6.68;;;3.25;;
16660;SDS011;8444;52.012;5.048;2023-05-20T05:41:09;9.07;;;4.53;;
16660;SDS011;8444;52.012;5.048;2023-05-20T05:43:34;7.43;;;3.20;;
16660;SDS011;8444;52.012;5.048;2023-05-20T05:45:59;5.82;;;3.25;;
16660;SDS011;8444;52.012;5.048;2023-05-20T05:48:25;7.45;;;3.25;;
16660;SDS011;8444;52.012;5.048;2023-05-20T05:50:50;5.30;;;3.45;;
16660;SDS011;8444;52.012;5.048;2023-05-20T05:53:15;6.25;;;3.17;;
16660;SDS011;8444;52.012;5.048;2023-05-20T05:55:40;5.82;;;3.00;;
16660;SDS011;8444;52.012;5.048;2023-05-20T05:58:06;10.00;;;3.50;;
16660;SDS011;8444;52.012;5.048;2023-05-20T06:00:31;4.70;;;3.50;;
16660;SDS011;8444;52.012;5.048;2023-05-20T06:02:56;8.05;;;3.20;;
16660;SDS011;8444;52.012;5.048;2023-05-20T06:05:21;5.13;;;2.65;;
16660;SDS011;8444;52.012;5.048;2023-05-20T06:07:47;4.47;;;2.92;;
16660;SDS011;8444;52.012;5.048;2023-05-20T06:10:12;5.93;;;2.75;;
16660;SDS011;8444;52.012;5.048;2023-05-20T06:12:37;5.78;;;2.80;;
16660;SDS011;8444;52.012;5.048;2023-05-20T06:15:02;4.22;;;3.08;;
16660;SDS011;8444;52.012;5.048;2023-05-20T06:17:28;5.05;;;2.90;;
16660;SDS011;8444;52.012;5.048;2023-05-20T06:19:53;9.00;;;3.28;;
16660;SDS011;8444;52.012;5.048;2023-05-20T06:22:18;5.40;;;2.70;;
16660;SDS011;8444;52.012;5.048;2023-05-20T06:24:43;3.97;;;2.78;;
16660;SDS011;8444;52.012;5.048;2023-05-20T06:27:09;4.72;;;3.30;;
16660;SDS011;8444;52.012;5.048;2023-05-20T06:29:34;5.18;;;2.90;;
16660;SDS011;8444;52.012;5.048;2023-05-20T06:31:59;3.30;;;2.50;;
16660;SDS011;8444;52.012;5.048;2023-05-20T06:34:24;5.68;;;2.85;;
16660;SDS011;8444;52.012;5.048;2023-05-20T06:36:50;4.05;;;2.38;;
16660;SDS011;8444;52.012;5.048;2023-05-20T06:39:15;3.30;;;3.00;;
16660;SDS011;8444;52.012;5.048;2023-05-20T06:41:40;4.63;;;2.60;;
16660;SDS011;8444;52.012;5.048;2023-05-20T06:44:05;8.50;;;2.85;;
16660;SDS011;8444;52.012;5.048;2023-05-20T06:46:31;2.88;;;2.58;;
16660;SDS011;8444;52.012;5.048;2023-05-20T06:48:56;6.30;;;3.22;;
16660;SDS011;8444;52.012;5.048;2023-05-20T06:51:21;2.90;;;2.20;;
16660;SDS011;8444;52.012;5.048;2023-05-20T06:53:46;3.80;;;2.83;;
16660;SDS011;8444;52.012;5.048;2023-05-20T06:56:12;6.38;;;3.55;;
16660;SDS011;8444;52.012;5.048;2023-05-20T06:58:37;2.92;;;2.35;;
16660;SDS011;8444;52.012;5.048;2023-05-20T07:01:02;5.90;;;2.95;;
16660;SDS011;8444;52.012;5.048;2023-05-20T07:03:28;3.95;;;2.67;;
16660;SDS011;8444;52.012;5.048;2023-05-20T07:05:53;3.42;;;2.58;;
16660;SDS011;8444;52.012;5.048;2023-05-20T07:08:18;6.18;;;2.53;;
16660;SDS011;8444;52.012;5.048;2023-05-20T07:10:43;5.07;;;2.30;;
16660;SDS011;8444;52.012;5.048;2023-05-20T07:13:09;4.50;;;3.17;;
16660;SDS011;8444;52.012;5.048;2023-05-20T07:15:35;3.53;;;2.30;;
16660;SDS011;8444;52.012;5.048;2023-05-20T07:18:00;5.93;;;2.47;;
16660;SDS011;8444;52.012;5.048;2023-05-20T07:20:25;6.85;;;2.58;;
16660;SDS011;8444;52.012;5.048;2023-05-20T07:22:50;3.22;;;2.30;;
16660;SDS011;8444;52.012;5.048;2023-05-20T07:25:15;3.08;;;2.30;;
16660;SDS011;8444;52.012;5.048;2023-05-20T07:27:41;5.25;;;2.75;;
16660;SDS011;8444;52.012;5.048;2023-05-20T07:30:06;4.35;;;2.20;;
16660;SDS011;8444;52.012;5.048;2023-05-20T07:32:32;3.28;;;2.03;;
16660;SDS011;8444;52.012;5.048;2023-05-20T07:34:57;5.07;;;2.42;;
16660;SDS011;8444;52.012;5.048;2023-05-20T07:37:22;3.78;;;2.20;;
16660;SDS011;8444;52.012;5.048;2023-05-20T07:39:48;7.20;;;2.67;;
16660;SDS011;8444;52.012;5.048;2023-05-20T07:42:13;4.03;;;2.13;;
16660;SDS011;8444;52.012;5.048;2023-05-20T07:44:38;4.82;;;2.50;;
16660;SDS011;8444;52.012;5.048;2023-05-20T07:47:04;6.22;;;2.50;;
16660;SDS011;8444;52.012;5.048;2023-05-20T07:49:29;4.15;;;2.67;;
16660;SDS011;8444;52.012;5.048;2023-05-20T07:51:55;4.78;;;2.28;;
16660;SDS011;8444;52.012;5.048;2023-05-20T07:54:20;3.25;;;2.40;;
16660;SDS011;8444;52.012;5.048;2023-05-20T07:56:45;3.92;;;2.20;;
16660;SDS011;8444;52.012;5.048;2023-05-20T07:59:10;3.72;;;2.30;;
16660;SDS011;8444;52.012;5.048;2023-05-20T08:01:36;4.72;;;2.03;;
16660;SDS011;8444;52.012;5.048;2023-05-20T08:04:01;4.75;;;2.40;;
16660;SDS011;8444;52.012;5.048;2023-05-20T08:06:27;3.10;;;2.65;;
16660;SDS011;8444;52.012;5.048;2023-05-20T08:08:52;3.20;;;2.30;;
16660;SDS011;8444;52.012;5.048;2023-05-20T08:11:18;6.20;;;2.42;;
16660;SDS011;8444;52.012;5.048;2023-05-20T08:13:43;2.83;;;1.83;;
16660;SDS011;8444;52.012;5.048;2023-05-20T08:16:09;2.75;;;1.83;;
16660;SDS011;8444;52.012;5.048;2023-05-20T08:18:34;2.35;;;1.60;;
16660;SDS011;8444;52.012;5.048;2023-05-20T08:21:01;2.63;;;1.50;;
16660;SDS011;8444;52.012;5.048;2023-05-20T08:23:26;6.60;;;1.55;;
16660;SDS011;8444;52.012;5.048;2023-05-20T08:25:52;4.47;;;2.08;;
16660;SDS011;8444;52.012;5.048;2023-05-20T08:28:17;4.28;;;1.70;;
16660;SDS011;8444;52.012;5.048;2023-05-20T08:30:42;5.00;;;1.35;;
16660;SDS011;8444;52.012;5.048;2023-05-20T08:33:08;2.65;;;1.33;;
16660;SDS011;8444;52.012;5.048;2023-05-20T08:35:33;2.80;;;1.50;;
16660;SDS011;8444;52.012;5.048;2023-05-20T08:37:59;3.15;;;1.23;;
16660;SDS011;8444;52.012;5.048;2023-05-20T08:40:25;5.78;;;1.92;;
16660;SDS011;8444;52.012;5.048;2023-05-20T08:42:51;1.60;;;0.95;;
16660;SDS011;8444;52.012;5.048;2023-05-20T08:45:17;3.63;;;1.60;;
16660;SDS011;8444;52.012;5.048;2023-05-20T08:47:43;2.35;;;1.75;;
16660;SDS011;8444;52.012;5.048;2023-05-20T08:50:09;3.65;;;1.40;;
16660;SDS011;8444;52.012;5.048;2023-05-20T08:52:35;2.55;;;1.33;;
16660;SDS011;8444;52.012;5.048;2023-05-20T08:55:01;4.28;;;1.75;;
16660;SDS011;8444;52.012;5.048;2023-05-20T08:57:27;2.88;;;1.40;;
16660;SDS011;8444;52.012;5.048;2023-05-20T08:59:54;2.35;;;1.25;;
16660;SDS011;8444;52.012;5.048;2023-05-20T09:02:20;2.42;;;1.60;;
16660;SDS011;8444;52.012;5.048;2023-05-20T09:04:46;2.38;;;1.50;;
16660;SDS011;8444;52.012;5.048;2023-05-20T09:07:11;1.88;;;1.25;;
16660;SDS011;8444;52.012;5.048;2023-05-20T09:09:36;4.47;;;1.50;;
16660;SDS011;8444;52.012;5.048;2023-05-20T09:12:02;3.75;;;1.50;;
16660;SDS011;8444;52.012;5.048;2023-05-20T09:14:28;5.50;;;1.10;;
16660;SDS011;8444;52.012;5.048;2023-05-20T09:16:53;5.68;;;1.30;;
16660;SDS011;8444;52.012;5.048;2023-05-20T09:19:19;3.17;;;1.77;;
16660;SDS011;8444;52.012;5.048;2023-05-20T09:21:45;2.25;;;1.15;;
16660;SDS011;8444;52.012;5.048;2023-05-20T09:24:11;3.00;;;1.20;;
16660;SDS011;8444;52.012;5.048;2023-05-20T09:26:36;2.58;;;1.50;;
16660;SDS011;8444;52.012;5.048;2023-05-20T09:29:01;1.70;;;1.00;;
16660;SDS011;8444;52.012;5.048;2023-05-20T09:31:27;1.90;;;1.10;;
16660;SDS011;8444;52.012;5.048;2023-05-20T09:33:53;2.55;;;1.35;;
16660;SDS011;8444;52.012;5.048;2023-05-20T09:36:18;2.60;;;1.00;;
16660;SDS011;8444;52.012;5.048;2023-05-20T09:38:45;2.63;;;1.23;;
16660;SDS011;8444;52.012;5.048;2023-05-20T09:41:12;2.75;;;1.60;;
16660;SDS011;8444;52.012;5.048;2023-05-20T09:43:40;5.18;;;1.20;;
16660;SDS011;8444;52.012;5.048;2023-05-20T09:46:06;2.88;;;1.30;;
16660;SDS011;8444;52.012;5.048;2023-05-20T09:48:32;3.78;;;1.35;;
16660;SDS011;8444;52.012;5.048;2023-05-20T09:51:00;4.85;;;3.28;;
16660;SDS011;8444;52.012;5.048;2023-05-20T09:53:25;2.85;;;1.05;;
16660;SDS011;8444;52.012;5.048;2023-05-20T09:55:51;1.40;;;1.10;;
16660;SDS011;8444;52.012;5.048;2023-05-20T09:58:18;1.83;;;1.40;;
16660;SDS011;8444;52.012;5.048;2023-05-20T10:00:44;4.60;;;1.52;;
16660;SDS011;8444;52.012;5.048;2023-05-20T10:03:09;3.63;;;1.50;;
16660;SDS011;8444;52.012;5.048;2023-05-20T10:05:39;3.95;;;1.10;;
16660;SDS011;8444;52.012;5.048;2023-05-20T10:21:32;2.00;;;1.80;;
16660;SDS011;8444;52.012;5.048;2023-05-20T10:24:04;1.55;;;1.00;;
16660;SDS011;8444;52.012;5.048;2023-05-20T10:26:33;1.58;;;1.30;;
16660;SDS011;8444;52.012;5.048;2023-05-20T10:28:59;2.83;;;1.17;;
16660;SDS011;8444;52.012;5.048;2023-05-20T10:31:24;5.82;;;1.90;;
16660;SDS011;8444;52.012;5.048;2023-05-20T10:33:51;3.53;;;1.30;;
16660;SDS011;8444;52.012;5.048;2023-05-20T10:38:50;3.40;;;1.17;;
16660;SDS011;8444;52.012;5.048;2023-05-20T10:41:19;1.20;;;1.10;;
16660;SDS011;8444;52.012;5.048;2023-05-20T10:43:45;2.22;;;1.10;;
16660;SDS011;8444;52.012;5.048;2023-05-20T10:46:16;6.03;;;1.30;;
16660;SDS011;8444;52.012;5.048;2023-05-20T10:48:41;4.28;;;1.45;;
16660;SDS011;8444;52.012;5.048;2023-05-20T10:51:10;3.33;;;1.45;;
16660;SDS011;8444;52.012;5.048;2023-05-20T10:53:37;1.40;;;1.02;;
16660;SDS011;8444;52.012;5.048;2023-05-20T10:56:03;5.13;;;1.25;;
16660;SDS011;8444;52.012;5.048;2023-05-20T10:58:35;2.28;;;1.67;;
16660;SDS011;8444;52.012;5.048;2023-05-20T11:01:00;3.13;;;1.45;;
16660;SDS011;8444;52.012;5.048;2023-05-20T11:03:27;1.75;;;1.50;;
16660;SDS011;8444;52.012;5.048;2023-05-20T11:05:53;1.25;;;1.10;;
16660;SDS011;8444;52.012;5.048;2023-05-20T11:08:18;1.70;;;1.43;;
16660;SDS011;8444;52.012;5.048;2023-05-20T11:10:43;2.83;;;1.33;;
16660;SDS011;8444;52.012;5.048;2023-05-20T11:13:10;3.35;;;1.25;;
16660;SDS011;8444;52.012;5.048;2023-05-20T11:15:36;1.75;;;1.15;;
16660;SDS011;8444;52.012;5.048;2023-05-20T11:18:03;1.10;;;1.00;;
16660;SDS011;8444;52.012;5.048;2023-05-20T11:20:28;5.28;;;1.20;;
16660;SDS011;8444;52.012;5.048;2023-05-20T11:22:54;1.73;;;1.30;;
16660;SDS011;8444;52.012;5.048;2023-05-20T11:25:20;1.90;;;1.23;;
16660;SDS011;8444;52.012;5.048;2023-05-20T11:27:47;2.45;;;1.10;;
16660;SDS011;8444;52.012;5.048;2023-05-20T11:30:13;4.25;;;1.23;;
16660;SDS011;8444;52.012;5.048;2023-05-20T11:32:41;3.40;;;1.35;;
16660;SDS011;8444;52.012;5.048;2023-05-20T11:35:06;3.30;;;1.20;;
16660;SDS011;8444;52.012;5.048;2023-05-20T11:37:32;5.00;;;1.55;;
16660;SDS011;8444;52.012;5.048;2023-05-20T11:40:03;4.28;;;1.60;;
16660;SDS011;8444;52.012;5.048;2023-05-20T11:42:31;4.80;;;2.20;;
16660;SDS011;8444;52.012;5.048;2023-05-20T11:44:58;4.25;;;1.63;;
16660;SDS011;8444;52.012;5.048;2023-05-20T11:47:23;2.50;;;1.30;;
16660;SDS011;8444;52.012;5.048;2023-05-20T11:49:51;3.20;;;1.30;;
16660;SDS011;8444;52.012;5.048;2023-05-20T11:52:16;3.50;;;1.38;;
16660;SDS011;8444;52.012;5.048;2023-05-20T11:54:41;3.42;;;1.48;;
16660;SDS011;8444;52.012;5.048;2023-05-20T11:57:07;4.20;;;1.35;;
16660;SDS011;8444;52.012;5.048;2023-05-20T11:59:32;5.10;;;1.38;;
16660;SDS011;8444;52.012;5.048;2023-05-20T12:01:57;2.55;;;1.42;;
16660;SDS011;8444;52.012;5.048;2023-05-20T12:04:22;3.00;;;1.35;;
16660;SDS011;8444;52.012;5.048;2023-05-20T12:06:48;2.33;;;1.35;;
16660;SDS011;8444;52.012;5.048;2023-05-20T12:09:13;1.70;;;1.05;;
16660;SDS011;8444;52.012;5.048;2023-05-20T12:11:38;3.60;;;1.20;;
16660;SDS011;8444;52.012;5.048;2023-05-20T12:14:05;3.90;;;1.30;;
16660;SDS011;8444;52.012;5.048;2023-05-20T12:16:32;1.42;;;1.33;;
16660;SDS011;8444;52.012;5.048;2023-05-20T12:18:57;2.75;;;1.38;;
16660;SDS011;8444;52.012;5.048;2023-05-20T12:21:23;3.13;;;1.38;;
16660;SDS011;8444;52.012;5.048;2023-05-20T12:23:48;5.95;;;1.75;;
16660;SDS011;8444;52.012;5.048;2023-05-20T12:26:13;2.15;;;1.20;;
16660;SDS011;8444;52.012;5.048;2023-05-20T12:28:38;3.47;;;1.63;;
16660;SDS011;8444;52.012;5.048;2023-05-20T12:31:04;1.98;;;1.58;;
16660;SDS011;8444;52.012;5.048;2023-05-20T12:33:29;2.33;;;1.30;;
16660;SDS011;8444;52.012;5.048;2023-05-20T12:35:55;2.13;;;1.50;;
16660;SDS011;8444;52.012;5.048;2023-05-20T12:38:20;1.77;;;1.20;;
16660;SDS011;8444;52.012;5.048;2023-05-20T12:40:45;2.70;;;1.48;;
16660;SDS011;8444;52.012;5.048;2023-05-20T12:43:11;3.60;;;1.20;;
16660;SDS011;8444;52.012;5.048;2023-05-20T12:45:36;1.52;;;1.23;;
16660;SDS011;8444;52.012;5.048;2023-05-20T12:48:01;2.67;;;1.67;;
16660;SDS011;8444;52.012;5.048;2023-05-20T12:50:27;1.55;;;1.45;;
16660;SDS011;8444;52.012;5.048;2023-05-20T12:52:52;2.75;;;1.60;;
16660;SDS011;8444;52.012;5.048;2023-05-20T12:55:17;1.90;;;1.23;;
16660;SDS011;8444;52.012;5.048;2023-05-20T12:57:43;2.20;;;1.45;;
16660;SDS011;8444;52.012;5.048;2023-05-20T13:00:09;3.75;;;1.58;;
16660;SDS011;8444;52.012;5.048;2023-05-20T13:02:35;2.92;;;1.10;;
16660;SDS011;8444;52.012;5.048;2023-05-20T13:05:00;4.60;;;1.15;;
16660;SDS011;8444;52.012;5.048;2023-05-20T13:07:25;1.93;;;1.10;;
16660;SDS011;8444;52.012;5.048;2023-05-20T13:09:51;5.85;;;1.20;;
16660;SDS011;8444;52.012;5.048;2023-05-20T13:12:16;2.60;;;1.10;;
16660;SDS011;8444;52.012;5.048;2023-05-20T13:14:41;1.65;;;1.20;;
16660;SDS011;8444;52.012;5.048;2023-05-20T13:17:06;1.77;;;1.27;;
16660;SDS011;8444;52.012;5.048;2023-05-20T13:19:32;2.83;;;1.00;;
16660;SDS011;8444;52.012;5.048;2023-05-20T13:21:57;3.28;;;1.02;;
16660;SDS011;8444;52.012;5.048;2023-05-20T13:24:22;3.78;;;1.20;;
16660;SDS011;8444;52.012;5.048;2023-05-20T13:26:48;6.23;;;1.20;;
16660;SDS011;8444;52.012;5.048;2023-05-20T13:29:13;2.40;;;1.17;;
16660;SDS011;8444;52.012;5.048;2023-05-20T13:31:38;1.43;;;1.10;;
16660;SDS011;8444;52.012;5.048;2023-05-20T13:34:04;3.25;;;1.33;;
16660;SDS011;8444;52.012;5.048;2023-05-20T13:36:29;1.67;;;1.10;;
16660;SDS011;8444;52.012;5.048;2023-05-20T13:38:55;2.20;;;1.17;;
16660;SDS011;8444;52.012;5.048;2023-05-20T13:41:20;3.20;;;1.17;;
16660;SDS011;8444;52.012;5.048;2023-05-20T13:43:45;1.33;;;1.10;;
16660;SDS011;8444;52.012;5.048;2023-05-20T13:46:10;2.43;;;1.47;;
16660;SDS011;8444;52.012;5.048;2023-05-20T13:48:35;3.00;;;1.23;;
16660;SDS011;8444;52.012;5.048;2023-05-20T13:51:01;4.27;;;1.53;;
16660;SDS011;8444;52.012;5.048;2023-05-20T13:53:26;4.78;;;1.65;;
16660;SDS011;8444;52.012;5.048;2023-05-20T13:55:51;4.63;;;1.45;;
16660;SDS011;8444;52.012;5.048;2023-05-20T13:58:16;6.03;;;1.40;;
16660;SDS011;8444;52.012;5.048;2023-05-20T14:00:42;3.43;;;1.20;;
16660;SDS011;8444;52.012;5.048;2023-05-20T14:03:07;3.70;;;1.00;;
16660;SDS011;8444;52.012;5.048;2023-05-20T14:05:34;2.20;;;1.27;;
16660;SDS011;8444;52.012;5.048;2023-05-20T14:07:59;3.40;;;1.48;;
16660;SDS011;8444;52.012;5.048;2023-05-20T14:10:24;4.05;;;1.40;;
16660;SDS011;8444;52.012;5.048;2023-05-20T14:12:53;3.38;;;1.73;;
16660;SDS011;8444;52.012;5.048;2023-05-20T14:15:19;2.22;;;1.55;;
16660;SDS011;8444;52.012;5.048;2023-05-20T14:17:44;2.40;;;1.23;;
16660;SDS011;8444;52.012;5.048;2023-05-20T14:20:10;4.07;;;1.17;;
16660;SDS011;8444;52.012;5.048;2023-05-20T14:22:35;1.60;;;1.00;;
16660;SDS011;8444;52.012;5.048;2023-05-20T14:25:00;3.47;;;1.43;;
16660;SDS011;8444;52.012;5.048;2023-05-20T14:27:25;1.47;;;1.00;;
16660;SDS011;8444;52.012;5.048;2023-05-20T14:29:50;3.63;;;1.27;;
16660;SDS011;8444;52.012;5.048;2023-05-20T14:32:16;1.67;;;1.10;;
16660;SDS011;8444;52.012;5.048;2023-05-20T14:34:41;1.40;;;1.00;;
16660;SDS011;8444;52.012;5.048;2023-05-20T14:37:06;2.07;;;1.40;;
16660;SDS011;8444;52.012;5.048;2023-05-20T14:39:34;2.40;;;1.17;;
16660;SDS011;8444;52.012;5.048;2023-05-20T14:41:59;2.42;;;1.35;;
16660;SDS011;8444;52.012;5.048;2023-05-20T14:44:24;2.10;;;1.40;;
16660;SDS011;8444;52.012;5.048;2023-05-20T14:46:49;3.73;;;1.63;;
16660;SDS011;8444;52.012;5.048;2023-05-20T14:49:15;2.33;;;1.10;;
16660;SDS011;8444;52.012;5.048;2023-05-20T14:51:40;1.53;;;0.90;;
16660;SDS011;8444;52.012;5.048;2023-05-20T14:54:06;1.17;;;1.00;;
16660;SDS011;8444;52.012;5.048;2023-05-20T14:56:32;4.72;;;1.15;;
16660;SDS011;8444;52.012;5.048;2023-05-20T14:58:58;3.80;;;1.15;;
16660;SDS011;8444;52.012;5.048;2023-05-20T15:01:23;2.90;;;1.13;;
16660;SDS011;8444;52.012;5.048;2023-05-20T15:03:48;1.23;;;1.00;;
16660;SDS011;8444;52.012;5.048;2023-05-20T15:06:13;4.47;;;1.20;;